Texas City — WDD4983 — position and weather

sailwx.info

Track history (hours):
 
Tides and Currents Weather Stations Pressure Air Temp Water Temp Dewpoint Dewpoint Depression Visibility Wind Speed Wind Dir Waves Ship Positions

Texas City

Owner: Marathon Petroleum Company LP, Findlay, OH. More information available from US FCC via Universal Licensing System and Coast Guard Vessel Documentation Center.

Last reported at 2015-May-27 22:14 UTC. Time now 2015-May-29 22:19 UTC.
Position N 30°03' W 090°36'.

Length 28 m; draft 3 m.

Type: Tug. MMSI: 367135470.

Date/timePositionNaut miles runAvg speedWind from/ knotsBaromVisibWave heightAir tempDewpointWater temp
2015-May-27 22:14N 30°03' W 090°36'5 7.1
2015-May-27 21:33N 30°02' W 090°41'25 1.0
2015-May-26 19:10N 30°15' W 091°07'2 2.1
2015-May-26 18:08N 30°16' W 091°08'0 0.0
2015-May-26 17:16N 30°16' W 091°08'0 0.0
2015-May-26 16:06N 30°16' W 091°08'0 0.0
2015-May-26 15:33N 30°16' W 091°08'0 0.0
2015-May-26 13:16N 30°16' W 091°08'0 0.0
2015-May-26 12:33N 30°16' W 091°08'0 0.0
2015-May-26 11:33N 30°16' W 091°08'0 0.0
2015-May-26 10:27N 30°16' W 091°08'0 0.0
2015-May-26 09:32N 30°16' W 091°08'0 0.0
2015-May-26 08:27N 30°16' W 091°08'0 0.0
2015-May-26 07:32N 30°16' W 091°08'0 0.0
2015-May-26 06:25N 30°16' W 091°08'0 0.0
2015-May-26 04:20N 30°16' W 091°08'0 0.0
2015-May-26 03:28N 30°16' W 091°08'0 0.0
2015-May-26 02:27N 30°16' W 091°08'0 0.0
2015-May-26 01:29N 30°16' W 091°08'0 0.0
2015-May-26 00:15N 30°16' W 091°08'0 0.0
2015-May-25 23:27N 30°16' W 091°08'0 0.1
2015-May-25 22:33N 30°16' W 091°08'0 0.1
2015-May-25 21:32N 30°16' W 091°08'0 0.0
2015-May-25 20:33N 30°16' W 091°08'0 0.0
2015-May-25 19:21N 30°16' W 091°08'0 0.0
2015-May-25 15:13N 30°16' W 091°08'0 0.3
2015-May-25 14:30N 30°16' W 091°08'3 3.4
2015-May-25 13:30N 30°19' W 091°11'3 3.2
2015-May-25 12:31N 30°20' W 091°14'8 8.8
2015-May-25 11:33N 30°29' W 091°12'0 0.1
2015-May-25 10:33N 30°29' W 091°12'0 0.0
2015-May-25 09:33N 30°29' W 091°12'0 0.0
2015-May-25 08:33N 30°29' W 091°12'0 0.0
2015-May-25 07:33N 30°29' W 091°12'0 0.0
2015-May-25 06:33N 30°29' W 091°12'0 0.0
2015-May-25 05:33N 30°29' W 091°12'0 0.0
2015-May-25 04:33N 30°29' W 091°12'0 0.0
2015-May-25 03:33N 30°29' W 091°12'0 0.0
2015-May-25 02:33N 30°29' W 091°12'0 0.0
2015-May-25 01:33N 30°29' W 091°12'0 0.0
2015-May-25 00:33N 30°29' W 091°12'0 0.0
2015-May-24 23:33N 30°29' W 091°12'0 0.0
2015-May-24 22:34N 30°29' W 091°12'0 0.0
2015-May-24 21:33N 30°29' W 091°12'0 0.0
2015-May-24 20:33N 30°29' W 091°12'0 0.0
2015-May-24 19:33N 30°29' W 091°12'0 0.0
2015-May-24 18:33N 30°29' W 091°12'0 0.0
2015-May-24 17:33N 30°29' W 091°12'0 0.0
2015-May-24 16:33N 30°29' W 091°12'0 0.0
2015-May-24 15:33N 30°29' W 091°12'0 0.0
2015-May-24 14:33N 30°29' W 091°12'5 5.5
2015-May-24 13:34N 30°23' W 091°13'1 0.8
2015-May-24 12:23N 30°22' W 091°14'0 0.0
2015-May-24 11:33N 30°22' W 091°14'0 0.0
2015-May-24 10:29N 30°22' W 091°14'0 0.0
2015-May-24 09:33N 30°22' W 091°14'0 0.0
2015-May-24 08:28N 30°22' W 091°14'0 0.0
2015-May-24 07:15N 30°22' W 091°14'0 0.0
2015-May-24 06:32N 30°22' W 091°14'0 0.0
2015-May-24 05:32N 30°22' W 091°14'0 0.0
2015-May-24 04:33N 30°22' W 091°14'0 0.0
2015-May-24 03:33N 30°22' W 091°14'0 0.0
2015-May-24 02:22N 30°22' W 091°14'0 0.0
2015-May-24 01:33N 30°22' W 091°14'0 0.0
2015-May-24 00:17N 30°22' W 091°14'0 0.0
2015-May-23 22:30N 30°22' W 091°14'0 0.0
2015-May-23 21:25N 30°22' W 091°14'0 0.0
2015-May-23 20:33N 30°22' W 091°14'0 0.0
2015-May-23 19:33N 30°22' W 091°14'0 0.0
2015-May-23 18:27N 30°22' W 091°14'0 0.0
2015-May-23 17:33N 30°22' W 091°14'0 0.0
2015-May-23 16:32N 30°22' W 091°14'0 0.0
2015-May-23 15:34N 30°22' W 091°14'0 0.0
2015-May-23 14:33N 30°22' W 091°14'0 0.0
2015-May-23 13:18N 30°22' W 091°14'0 0.0
2015-May-23 12:32N 30°22' W 091°14'0 0.0
2015-May-23 10:05N 30°22' W 091°14'0 0.0
2015-May-23 09:10N 30°22' W 091°14'0 0.0
2015-May-23 08:16N 30°22' W 091°14'0 0.0
2015-May-23 07:30N 30°22' W 091°14'0 0.0
2015-May-23 04:21N 30°22' W 091°14'0 0.0
2015-May-23 03:29N 30°22' W 091°14'0 0.0
2015-May-23 02:33N 30°22' W 091°14'0 0.0
2015-May-23 01:33N 30°22' W 091°14'0 0.0
2015-May-23 00:31N 30°22' W 091°14'0 0.0
2015-May-22 23:33N 30°22' W 091°14'0 0.0
2015-May-22 22:13N 30°22' W 091°14'0 0.0
2015-May-22 21:15N 30°22' W 091°14'0 0.0
2015-May-22 20:22N 30°22' W 091°14'0 0.0
2015-May-22 19:23N 30°22' W 091°14'0 0.0
2015-May-22 17:15N 30°22' W 091°14'0 0.0
2015-May-22 16:04N 30°22' W 091°14'0 0.0
2015-May-22 15:24N 30°22' W 091°14'0 0.0
2015-May-22 14:33N 30°22' W 091°14'0 0.0
2015-May-22 13:33N 30°22' W 091°14'0 0.0
2015-May-22 12:33N 30°22' W 091°14'0 0.0
2015-May-22 11:32N 30°22' W 091°14'0 0.0
2015-May-22 10:33N 30°22' W 091°14'0 0.0
2015-May-22 09:31N 30°22' W 091°14'0 0.0
2015-May-22 08:32N 30°22' W 091°14'0 0.0
2015-May-22 07:33N 30°22' W 091°14'0 0.0
2015-May-22 06:33N 30°22' W 091°14'0 0.0
2015-May-22 05:30N 30°22' W 091°14'0 0.0
2015-May-22 04:33N 30°22' W 091°14'0 0.0
2015-May-22 03:31N 30°22' W 091°14'0 0.0
2015-May-22 02:33N 30°22' W 091°14'0 0.0
2015-May-22 01:32N 30°22' W 091°14'0 0.0
2015-May-22 00:15N 30°22' W 091°14'0 0.0
2015-May-21 23:29N 30°22' W 091°14'0 0.0
2015-May-21 22:26N 30°22' W 091°14'0 0.0
2015-May-21 21:31N 30°22' W 091°14'0 0.0
2015-May-21 20:33N 30°22' W 091°14'0 0.0
2015-May-21 19:26N 30°22' W 091°14'0 0.0
2015-May-21 18:14N 30°22' W 091°14'0 0.0
2015-May-21 15:17N 30°22' W 091°14'0 0.0
2015-May-21 14:33N 30°22' W 091°14'0 0.0
2015-May-21 13:11N 30°22' W 091°14'0 0.0
2015-May-21 12:28N 30°22' W 091°14'0 0.0
2015-May-21 11:32N 30°22' W 091°14'0 0.0
2015-May-21 10:05N 30°22' W 091°14'0 0.0
2015-May-21 09:33N 30°22' W 091°14'0 0.0
2015-May-21 08:29N 30°22' W 091°14'0 0.0
2015-May-21 06:32N 30°22' W 091°14'0 0.0
2015-May-21 05:33N 30°22' W 091°14'0 0.0
2015-May-21 04:32N 30°22' W 091°14'0 0.0
2015-May-21 03:24N 30°22' W 091°14'0 0.0
2015-May-21 02:31N 30°22' W 091°14'0 0.0
2015-May-21 01:31N 30°22' W 091°14'0 0.0
2015-May-21 00:32N 30°22' W 091°14'0 0.0
2015-May-20 20:28N 30°22' W 091°14'3 3.7
2015-May-20 19:33N 30°25' W 091°12'1 1.3
2015-May-20 18:33N 30°24' W 091°13'3 3.0
2015-May-20 17:33N 30°21' W 091°14'5 5.0
2015-May-20 16:30N 30°20' W 091°09'  
Track history (hours):
 
Tides and Currents Weather Stations Pressure Air Temp Water Temp Dewpoint Dewpoint Depression Visibility Wind Speed Wind Dir Waves Ship Positions

Texas City

Owner: Marathon Petroleum Company LP, Findlay, OH. More information available from US FCC via Universal Licensing System and Coast Guard Vessel Documentation Center.

Last reported at 2015-May-27 22:14 UTC. Time now 2015-May-29 22:19 UTC.
Position N 30°03' W 090°36'.

Length 28 m; draft 3 m.

Type: Tug. MMSI: 367135470.

Date/timePositionNaut miles runAvg speedWind from/ knotsBaromVisibWave heightAir tempDewpointWater temp
2015-May-27 22:14N 30°03' W 090°36'5 7.1
2015-May-27 21:33N 30°02' W 090°41'25 1.0
2015-May-26 19:10N 30°15' W 091°07'2 2.1
2015-May-26 18:08N 30°16' W 091°08'0 0.0
2015-May-26 17:16N 30°16' W 091°08'0 0.0
2015-May-26 16:06N 30°16' W 091°08'0 0.0
2015-May-26 15:33N 30°16' W 091°08'0 0.0
2015-May-26 13:16N 30°16' W 091°08'0 0.0
2015-May-26 12:33N 30°16' W 091°08'0 0.0
2015-May-26 11:33N 30°16' W 091°08'0 0.0
2015-May-26 10:27N 30°16' W 091°08'0 0.0
2015-May-26 09:32N 30°16' W 091°08'0 0.0
2015-May-26 08:27N 30°16' W 091°08'0 0.0
2015-May-26 07:32N 30°16' W 091°08'0 0.0
2015-May-26 06:25N 30°16' W 091°08'0 0.0
2015-May-26 04:20N 30°16' W 091°08'0 0.0
2015-May-26 03:28N 30°16' W 091°08'0 0.0
2015-May-26 02:27N 30°16' W 091°08'0 0.0
2015-May-26 01:29N 30°16' W 091°08'0 0.0
2015-May-26 00:15N 30°16' W 091°08'0 0.0
2015-May-25 23:27N 30°16' W 091°08'0 0.1
2015-May-25 22:33N 30°16' W 091°08'0 0.1
2015-May-25 21:32N 30°16' W 091°08'0 0.0
2015-May-25 20:33N 30°16' W 091°08'0 0.0
2015-May-25 19:21N 30°16' W 091°08'0 0.0
2015-May-25 15:13N 30°16' W 091°08'0 0.3
2015-May-25 14:30N 30°16' W 091°08'3 3.4
2015-May-25 13:30N 30°19' W 091°11'3 3.2
2015-May-25 12:31N 30°20' W 091°14'8 8.8
2015-May-25 11:33N 30°29' W 091°12'0 0.1
2015-May-25 10:33N 30°29' W 091°12'0 0.0
2015-May-25 09:33N 30°29' W 091°12'0 0.0
2015-May-25 08:33N 30°29' W 091°12'0 0.0
2015-May-25 07:33N 30°29' W 091°12'0 0.0
2015-May-25 06:33N 30°29' W 091°12'0 0.0
2015-May-25 05:33N 30°29' W 091°12'0 0.0
2015-May-25 04:33N 30°29' W 091°12'0 0.0
2015-May-25 03:33N 30°29' W 091°12'0 0.0
2015-May-25 02:33N 30°29' W 091°12'0 0.0
2015-May-25 01:33N 30°29' W 091°12'0 0.0
2015-May-25 00:33N 30°29' W 091°12'0 0.0
2015-May-24 23:33N 30°29' W 091°12'0 0.0
2015-May-24 22:34N 30°29' W 091°12'0 0.0
2015-May-24 21:33N 30°29' W 091°12'0 0.0
2015-May-24 20:33N 30°29' W 091°12'0 0.0
2015-May-24 19:33N 30°29' W 091°12'0 0.0
2015-May-24 18:33N 30°29' W 091°12'0 0.0
2015-May-24 17:33N 30°29' W 091°12'0 0.0
2015-May-24 16:33N 30°29' W 091°12'0 0.0
2015-May-24 15:33N 30°29' W 091°12'0 0.0
2015-May-24 14:33N 30°29' W 091°12'5 5.5
2015-May-24 13:34N 30°23' W 091°13'1 0.8
2015-May-24 12:23N 30°22' W 091°14'0 0.0
2015-May-24 11:33N 30°22' W 091°14'0 0.0
2015-May-24 10:29N 30°22' W 091°14'0 0.0
2015-May-24 09:33N 30°22' W 091°14'0 0.0
2015-May-24 08:28N 30°22' W 091°14'0 0.0
2015-May-24 07:15N 30°22' W 091°14'0 0.0
2015-May-24 06:32N 30°22' W 091°14'0 0.0
2015-May-24 05:32N 30°22' W 091°14'0 0.0
2015-May-24 04:33N 30°22' W 091°14'0 0.0
2015-May-24 03:33N 30°22' W 091°14'0 0.0
2015-May-24 02:22N 30°22' W 091°14'0 0.0
2015-May-24 01:33N 30°22' W 091°14'0 0.0
2015-May-24 00:17N 30°22' W 091°14'0 0.0
2015-May-23 22:30N 30°22' W 091°14'0 0.0
2015-May-23 21:25N 30°22' W 091°14'0 0.0
2015-May-23 20:33N 30°22' W 091°14'0 0.0
2015-May-23 19:33N 30°22' W 091°14'0 0.0
2015-May-23 18:27N 30°22' W 091°14'0 0.0
2015-May-23 17:33N 30°22' W 091°14'0 0.0
2015-May-23 16:32N 30°22' W 091°14'0 0.0
2015-May-23 15:34N 30°22' W 091°14'0 0.0
2015-May-23 14:33N 30°22' W 091°14'0 0.0
2015-May-23 13:18N 30°22' W 091°14'0 0.0
2015-May-23 12:32N 30°22' W 091°14'0 0.0
2015-May-23 10:05N 30°22' W 091°14'0 0.0
2015-May-23 09:10N 30°22' W 091°14'0 0.0
2015-May-23 08:16N 30°22' W 091°14'0 0.0
2015-May-23 07:30N 30°22' W 091°14'0 0.0
2015-May-23 04:21N 30°22' W 091°14'0 0.0
2015-May-23 03:29N 30°22' W 091°14'0 0.0
2015-May-23 02:33N 30°22' W 091°14'0 0.0
2015-May-23 01:33N 30°22' W 091°14'0 0.0
2015-May-23 00:31N 30°22' W 091°14'0 0.0
2015-May-22 23:33N 30°22' W 091°14'0 0.0
2015-May-22 22:13N 30°22' W 091°14'0 0.0
2015-May-22 21:15N 30°22' W 091°14'0 0.0
2015-May-22 20:22N 30°22' W 091°14'0 0.0
2015-May-22 19:23N 30°22' W 091°14'0 0.0
2015-May-22 17:15N 30°22' W 091°14'0 0.0
2015-May-22 16:04N 30°22' W 091°14'0 0.0
2015-May-22 15:24N 30°22' W 091°14'0 0.0
2015-May-22 14:33N 30°22' W 091°14'0 0.0
2015-May-22 13:33N 30°22' W 091°14'0 0.0
2015-May-22 12:33N 30°22' W 091°14'0 0.0
2015-May-22 11:32N 30°22' W 091°14'0 0.0
2015-May-22 10:33N 30°22' W 091°14'0 0.0
2015-May-22 09:31N 30°22' W 091°14'0 0.0
2015-May-22 08:32N 30°22' W 091°14'0 0.0
2015-May-22 07:33N 30°22' W 091°14'0 0.0
2015-May-22 06:33N 30°22' W 091°14'0 0.0
2015-May-22 05:30N 30°22' W 091°14'0 0.0
2015-May-22 04:33N 30°22' W 091°14'0 0.0
2015-May-22 03:31N 30°22' W 091°14'0 0.0
2015-May-22 02:33N 30°22' W 091°14'0 0.0
2015-May-22 01:32N 30°22' W 091°14'0 0.0
2015-May-22 00:15N 30°22' W 091°14'0 0.0
2015-May-21 23:29N 30°22' W 091°14'0 0.0
2015-May-21 22:26N 30°22' W 091°14'0 0.0
2015-May-21 21:31N 30°22' W 091°14'0 0.0
2015-May-21 20:33N 30°22' W 091°14'0 0.0
2015-May-21 19:26N 30°22' W 091°14'0 0.0
2015-May-21 18:14N 30°22' W 091°14'0 0.0
2015-May-21 15:17N 30°22' W 091°14'0 0.0
2015-May-21 14:33N 30°22' W 091°14'0 0.0
2015-May-21 13:11N 30°22' W 091°14'0 0.0
2015-May-21 12:28N 30°22' W 091°14'0 0.0
2015-May-21 11:32N 30°22' W 091°14'0 0.0
2015-May-21 10:05N 30°22' W 091°14'0 0.0
2015-May-21 09:33N 30°22' W 091°14'0 0.0
2015-May-21 08:29N 30°22' W 091°14'0 0.0
2015-May-21 06:32N 30°22' W 091°14'0 0.0
2015-May-21 05:33N 30°22' W 091°14'0 0.0
2015-May-21 04:32N 30°22' W 091°14'0 0.0
2015-May-21 03:24N 30°22' W 091°14'0 0.0
2015-May-21 02:31N 30°22' W 091°14'0 0.0
2015-May-21 01:31N 30°22' W 091°14'0 0.0
2015-May-21 00:32N 30°22' W 091°14'0 0.0
2015-May-20 20:28N 30°22' W 091°14'3 3.7
2015-May-20 19:33N 30°25' W 091°12'1 1.3
2015-May-20 18:33N 30°24' W 091°13'3 3.0
2015-May-20 17:33N 30°21' W 091°14'5 5.0
2015-May-20 16:30N 30°20' W 091°09'  

Dump ship's entire track history